createdAt,value
2019-02-27T00:00:05.595Z,0.00
2019-02-27T00:01:05.491Z,0.00
2019-02-27T00:02:05.434Z,0.00
2019-02-27T00:03:05.438Z,0.00
2019-02-27T00:04:05.425Z,0.00
2019-02-27T00:05:05.984Z,0.00
2019-02-27T00:06:05.455Z,0.00
2019-02-27T00:07:05.388Z,0.00
2019-02-27T00:08:05.363Z,0.00
2019-02-27T00:09:05.379Z,0.00
2019-02-27T00:10:06.155Z,0.00
2019-02-27T00:11:05.392Z,0.00
2019-02-27T00:12:05.371Z,0.00
2019-02-27T00:13:05.286Z,0.00
2019-02-27T00:14:05.286Z,0.00
2019-02-27T00:15:05.971Z,0.00
2019-02-27T00:16:05.310Z,0.00
2019-02-27T00:17:05.284Z,0.00
2019-02-27T00:18:05.310Z,0.00
2019-02-27T00:19:05.253Z,0.00
2019-02-27T00:20:05.421Z,0.00
2019-02-27T00:21:05.239Z,0.00
2019-02-27T00:22:05.197Z,0.00
2019-02-27T00:23:05.168Z,0.00
2019-02-27T00:24:05.252Z,0.00
2019-02-27T00:25:05.172Z,0.00
2019-02-27T00:26:08.751Z,0.00
2019-02-27T00:27:05.135Z,0.00
2019-02-27T00:28:05.155Z,0.00
2019-02-27T00:29:05.143Z,0.00
2019-02-27T00:30:05.897Z,0.00
2019-02-27T00:31:05.206Z,0.00
2019-02-27T00:32:05.197Z,0.00
2019-02-27T00:33:05.126Z,0.00
2019-02-27T00:34:05.144Z,0.00
2019-02-27T00:35:07.271Z,0.00
2019-02-27T00:36:05.097Z,0.00
2019-02-27T00:37:05.298Z,0.00
2019-02-27T00:38:05.081Z,0.00
2019-02-27T00:39:05.070Z,0.00
2019-02-27T00:40:05.633Z,0.00
2019-02-27T00:41:05.024Z,0.00
2019-02-27T00:42:05.090Z,0.00
2019-02-27T00:43:04.987Z,0.00
2019-02-27T00:44:05.059Z,0.00
2019-02-27T00:45:07.061Z,0.00
2019-02-27T00:46:04.986Z,0.00
2019-02-27T00:47:05.051Z,0.00
2019-02-27T00:48:04.903Z,0.00
2019-02-27T00:49:04.898Z,0.00
2019-02-27T00:50:06.632Z,0.00
2019-02-27T00:51:04.921Z,0.00
2019-02-27T00:52:04.928Z,0.00
2019-02-27T00:53:04.930Z,0.00
2019-02-27T00:54:04.864Z,0.00
2019-02-27T00:55:05.351Z,0.00
2019-02-27T00:56:04.873Z,0.00
2019-02-27T00:57:04.839Z,0.00
2019-02-27T00:58:04.998Z,0.00
2019-02-27T00:59:04.960Z,0.00
2019-02-27T01:00:06.652Z,0.00
2019-02-27T01:01:04.835Z,0.00
2019-02-27T01:02:04.880Z,0.00
2019-02-27T01:03:04.789Z,0.00
2019-02-27T01:04:04.794Z,0.00
2019-02-27T01:05:06.218Z,0.00
2019-02-27T01:06:04.731Z,0.00
2019-02-27T01:07:04.792Z,0.00
2019-02-27T01:08:04.755Z,0.00
2019-02-27T01:09:06.361Z,0.00
2019-02-27T01:10:04.698Z,0.00
2019-02-27T01:11:04.703Z,0.00
2019-02-27T01:12:04.692Z,0.00
2019-02-27T01:13:04.631Z,0.00
2019-02-27T01:14:04.666Z,0.00
2019-02-27T01:15:04.690Z,0.00
2019-02-27T01:16:04.677Z,0.00
2019-02-27T01:17:04.607Z,0.00
2019-02-27T01:18:04.699Z,0.00
2019-02-27T01:19:05.283Z,0.00
2019-02-27T01:20:04.600Z,0.00
2019-02-27T01:21:04.607Z,0.00
2019-02-27T01:22:04.573Z,0.00
2019-02-27T01:23:04.571Z,0.00
2019-02-27T01:24:04.585Z,0.00
2019-02-27T01:25:04.590Z,0.00
2019-02-27T01:26:04.500Z,0.00
2019-02-27T01:27:05.307Z,0.00
2019-02-27T01:28:04.494Z,0.00
2019-02-27T01:29:04.473Z,0.00
2019-02-27T01:30:04.473Z,0.00
2019-02-27T01:31:04.519Z,0.00
2019-02-27T01:32:04.837Z,0.00
2019-02-27T01:33:04.885Z,0.00
2019-02-27T01:34:04.536Z,0.00
2019-02-27T01:35:04.458Z,0.00
2019-02-27T01:36:04.486Z,0.00
2019-02-27T01:37:04.454Z,0.00
2019-02-27T01:38:05.295Z,0.00
2019-02-27T01:39:04.354Z,0.00
2019-02-27T01:40:04.366Z,0.00
2019-02-27T01:41:04.383Z,0.00
2019-02-27T01:42:04.335Z,0.00
2019-02-27T01:43:06.287Z,0.00
2019-02-27T01:44:04.307Z,0.00
2019-02-27T01:45:04.320Z,0.00
2019-02-27T01:46:04.347Z,0.00
2019-02-27T01:47:04.289Z,0.00
2019-02-27T01:48:04.260Z,0.00
2019-02-27T01:49:04.313Z,0.00
2019-02-27T01:50:04.333Z,0.00
2019-02-27T01:51:04.350Z,0.00
2019-02-27T01:52:04.308Z,0.00
2019-02-27T01:53:07.054Z,0.00
2019-02-27T01:54:04.315Z,0.00
2019-02-27T01:55:04.247Z,0.00
2019-02-27T01:56:04.195Z,0.00
2019-02-27T01:57:04.203Z,0.00
2019-02-27T01:58:04.226Z,0.00
2019-02-27T01:59:04.200Z,0.00
2019-02-27T02:00:06.260Z,0.00
2019-02-27T02:01:04.218Z,0.00
2019-02-27T02:02:04.178Z,0.00
2019-02-27T02:03:04.200Z,0.00
2019-02-27T02:04:04.102Z,0.00
2019-02-27T02:05:04.054Z,0.00
2019-02-27T02:06:04.238Z,0.00
2019-02-27T02:07:06.594Z,0.00
2019-02-27T02:08:04.068Z,0.00
2019-02-27T02:09:04.054Z,0.00
2019-02-27T02:10:04.072Z,0.00
2019-02-27T02:11:04.084Z,0.00
2019-02-27T02:12:07.688Z,0.00
2019-02-27T02:13:03.992Z,0.00
2019-02-27T02:14:04.042Z,0.00
2019-02-27T02:15:04.056Z,0.00
2019-02-27T02:16:04.014Z,0.00
2019-02-27T02:17:05.013Z,0.00
2019-02-27T02:18:03.922Z,0.00
2019-02-27T02:19:05.335Z,0.00
2019-02-27T02:20:03.935Z,0.00
2019-02-27T02:21:03.952Z,0.00
2019-02-27T02:22:06.107Z,0.00
2019-02-27T02:23:03.912Z,0.00
2019-02-27T02:24:03.926Z,0.00
2019-02-27T02:25:04.324Z,0.00
2019-02-27T02:26:03.898Z,0.00
2019-02-27T02:27:07.987Z,0.00
2019-02-27T02:28:03.946Z,0.00
2019-02-27T02:29:03.825Z,0.00
2019-02-27T02:30:03.891Z,0.00
2019-02-27T02:31:05.584Z,0.00
2019-02-27T02:32:03.935Z,0.00
2019-02-27T02:33:03.944Z,0.00
2019-02-27T02:34:05.593Z,0.00
2019-02-27T02:35:03.858Z,0.00
2019-02-27T02:36:03.846Z,0.00
2019-02-27T02:37:03.853Z,0.00
2019-02-27T02:38:03.741Z,0.00
2019-02-27T02:39:03.757Z,0.00
2019-02-27T02:40:03.720Z,0.00
2019-02-27T02:41:07.946Z,0.00
2019-02-27T02:42:04.694Z,0.00
2019-02-27T02:43:03.722Z,0.00
2019-02-27T02:44:03.679Z,0.00
2019-02-27T02:45:03.627Z,0.00
2019-02-27T02:46:07.879Z,0.00
2019-02-27T02:47:04.669Z,0.00
2019-02-27T02:48:03.640Z,0.00
2019-02-27T02:49:07.864Z,0.00
2019-02-27T02:50:03.591Z,0.00
2019-02-27T02:51:03.602Z,0.00
2019-02-27T02:52:05.555Z,0.00
2019-02-27T02:53:03.546Z,0.00
2019-02-27T02:54:03.568Z,0.00
2019-02-27T02:55:03.531Z,0.00
2019-02-27T02:56:03.628Z,0.00
2019-02-27T02:57:04.986Z,0.00
2019-02-27T02:58:03.547Z,0.00
2019-02-27T02:59:03.564Z,0.00
2019-02-27T03:00:03.497Z,0.00
2019-02-27T03:01:03.494Z,0.00
2019-02-27T03:02:03.578Z,0.00
2019-02-27T03:03:03.474Z,0.00
2019-02-27T03:04:03.432Z,0.00
2019-02-27T03:05:03.452Z,0.00
2019-02-27T03:06:03.438Z,0.00
2019-02-27T03:07:03.441Z,0.00
2019-02-27T03:08:03.414Z,0.00
2019-02-27T03:09:03.450Z,0.00
2019-02-27T03:10:07.090Z,0.00
2019-02-27T03:11:03.429Z,0.00
2019-02-27T03:12:03.337Z,0.00
2019-02-27T03:13:07.152Z,0.00
2019-02-27T03:14:03.366Z,0.00
2019-02-27T03:15:03.360Z,0.00
2019-02-27T03:16:04.832Z,0.00
2019-02-27T03:17:03.401Z,0.00
2019-02-27T03:18:03.307Z,0.00
2019-02-27T03:19:06.276Z,0.00
2019-02-27T03:20:03.246Z,0.00
2019-02-27T03:21:03.285Z,0.00
2019-02-27T03:22:04.429Z,0.00
2019-02-27T03:23:03.218Z,0.00
2019-02-27T03:24:03.282Z,0.00
2019-02-27T03:25:05.169Z,0.00
2019-02-27T03:26:03.370Z,0.00
2019-02-27T03:27:03.229Z,0.00
2019-02-27T03:28:04.991Z,0.00
2019-02-27T03:29:03.177Z,0.00
2019-02-27T03:30:03.186Z,0.00
2019-02-27T03:31:03.271Z,0.00
2019-02-27T03:32:03.124Z,0.00
2019-02-27T03:33:03.117Z,0.00
2019-02-27T03:34:07.989Z,0.00
2019-02-27T03:35:04.130Z,0.00
2019-02-27T03:36:04.268Z,0.00
2019-02-27T03:37:03.194Z,0.00
2019-02-27T03:38:03.102Z,0.00
2019-02-27T03:39:03.110Z,0.00
2019-02-27T03:40:03.056Z,0.00
2019-02-27T03:41:03.143Z,0.00
2019-02-27T03:42:03.091Z,0.00
2019-02-27T03:43:03.101Z,0.00
2019-02-27T03:44:03.120Z,0.00
2019-02-27T03:45:03.066Z,0.00
2019-02-27T03:46:06.225Z,0.00
2019-02-27T03:47:03.024Z,0.00
2019-02-27T03:48:03.000Z,0.00
2019-02-27T03:49:03.781Z,0.00
2019-02-27T03:50:02.949Z,0.00
2019-02-27T03:51:03.001Z,0.00
2019-02-27T03:52:02.955Z,0.00
2019-02-27T03:53:02.966Z,0.00
2019-02-27T03:54:02.914Z,0.00
2019-02-27T03:55:02.965Z,0.00
2019-02-27T03:56:08.641Z,0.00
2019-02-27T03:57:03.915Z,0.00
2019-02-27T03:58:02.953Z,0.00
2019-02-27T03:59:06.332Z,0.00
2019-02-27T04:00:03.019Z,0.00
2019-02-27T04:02:57.005Z,0.00
2019-02-27T04:03:55.563Z,0.00
2019-02-27T04:04:55.468Z,0.00
2019-02-27T04:05:55.466Z,0.00
2019-02-27T04:06:56.412Z,0.00
2019-02-27T04:07:55.410Z,0.00
2019-02-27T04:08:55.389Z,0.00
2019-02-27T04:09:56.437Z,0.00
2019-02-27T04:10:55.267Z,0.00
2019-02-27T04:11:55.648Z,0.00
2019-02-27T04:12:55.788Z,0.00
2019-02-27T04:13:55.277Z,0.00
2019-02-27T04:14:58.407Z,0.00
2019-02-27T04:15:55.171Z,0.00
2019-02-27T04:16:55.215Z,0.00
2019-02-27T04:17:55.338Z,0.00
2019-02-27T04:18:55.268Z,0.00
2019-02-27T04:19:55.190Z,0.00
2019-02-27T04:20:55.378Z,0.00
2019-02-27T04:22:00.523Z,0.00
2019-02-27T05:54:32.245Z,0.00
2019-02-27T05:55:30.449Z,0.00
2019-02-27T05:56:28.888Z,0.00
2019-02-27T05:57:28.446Z,0.00
2019-02-27T06:06:26.141Z,5.62
2019-02-27T06:07:24.544Z,5.62
2019-02-27T06:08:24.619Z,5.62
2019-02-27T06:09:24.435Z,5.62
2019-02-27T06:13:25.702Z,11.25
2019-02-27T06:29:06.739Z,50.62
2019-02-27T06:30:06.766Z,50.62
2019-02-27T06:31:16.199Z,56.25
2019-02-27T06:35:52.876Z,67.50
2019-02-27T06:36:49.962Z,73.12
2019-02-27T07:10:20.639Z,168.75
2019-02-27T07:12:30.888Z,174.38
2019-02-27T07:16:13.150Z,180.00
2019-02-27T07:17:13.000Z,185.62
2019-02-27T07:18:12.907Z,185.62
2019-02-27T07:19:13.215Z,191.25
2019-02-27T07:20:12.799Z,191.25
2019-02-27T07:21:12.869Z,196.88
2019-02-27T07:22:13.141Z,196.88
2019-02-27T07:23:12.724Z,202.50
2019-02-27T07:24:12.774Z,202.50
2019-02-27T07:26:24.751Z,208.12
2019-02-27T07:27:24.472Z,208.12
2019-02-27T07:28:24.487Z,213.75
2019-02-27T07:29:27.247Z,213.75
2019-02-27T07:30:24.373Z,219.38
2019-02-27T07:31:24.302Z,219.38
2019-02-27T07:32:24.239Z,225.00
2019-02-27T07:33:24.153Z,225.00
2019-02-27T07:34:24.153Z,225.00
2019-02-27T07:35:26.339Z,230.62
2019-02-27T07:36:24.716Z,230.62
2019-02-27T07:37:24.100Z,236.25
2019-02-27T07:38:25.564Z,236.25
2019-02-27T07:41:29.861Z,241.88
2019-02-27T07:42:24.946Z,241.88
2019-02-27T07:43:25.776Z,241.88
2019-02-27T07:44:24.617Z,241.88
2019-02-27T07:45:24.555Z,247.50
2019-02-27T07:46:24.573Z,247.50
2019-02-27T07:47:38.428Z,247.50
2019-02-27T07:48:25.005Z,253.12
2019-02-27T07:49:24.520Z,253.12
2019-02-27T07:50:24.767Z,253.12
2019-02-27T07:51:24.424Z,253.12
2019-02-27T07:52:24.400Z,258.75
2019-02-27T07:53:25.654Z,258.75
2019-02-27T07:55:59.476Z,264.38
2019-02-27T07:56:59.066Z,264.38
2019-02-27T07:57:59.317Z,438.75
2019-02-27T07:58:59.096Z,967.50
2019-02-27T07:59:58.969Z,1226.25
2019-02-27T08:00:59.423Z,1248.75
2019-02-27T08:02:02.356Z,1243.12
2019-02-27T08:02:58.877Z,1209.38
2019-02-27T08:03:58.860Z,1215.00
2019-02-27T08:04:58.836Z,1254.38
2019-02-27T08:05:59.896Z,1248.75
2019-02-27T08:06:58.860Z,1231.88
2019-02-27T08:07:58.820Z,1333.12
2019-02-27T08:08:58.803Z,1428.75
2019-02-27T08:10:00.776Z,1423.12
2019-02-27T08:10:59.772Z,1344.38
2019-02-27T08:11:58.741Z,1355.62
2019-02-27T08:12:58.803Z,1485.00
2019-02-27T08:14:00.777Z,1715.62
2019-02-27T08:14:59.752Z,1800.00
2019-02-27T08:16:07.639Z,1816.88
2019-02-27T08:18:11.081Z,1636.88
2019-02-27T08:19:11.464Z,1659.38
2019-02-27T08:21:31.913Z,1923.75
2019-02-27T08:22:31.541Z,1901.25
2019-02-27T08:23:31.731Z,1783.12
2019-02-27T08:24:31.416Z,1980.00
2019-02-27T08:25:31.337Z,2103.75
2019-02-27T08:26:31.389Z,2053.12
2019-02-27T08:27:31.380Z,1918.12
2019-02-27T08:28:31.377Z,1788.75
2019-02-27T08:29:31.299Z,1726.88
2019-02-27T08:30:31.275Z,1828.12
2019-02-27T08:31:32.110Z,1788.75
2019-02-27T08:32:31.987Z,1783.12
2019-02-27T08:33:31.481Z,1710.00
2019-02-27T08:34:32.168Z,1636.88
2019-02-27T08:36:35.309Z,1636.88
2019-02-27T08:38:46.363Z,1513.12
2019-02-27T08:39:43.430Z,1563.75
2019-02-27T10:50:35.521Z,354.38
2019-02-27T10:55:11.341Z,348.75
2019-02-27T10:57:43.762Z,354.38
2019-02-27T10:58:45.017Z,354.38
2019-02-27T10:59:43.323Z,354.38
2019-02-27T11:00:46.395Z,354.38
2019-02-27T11:01:43.262Z,354.38
2019-02-27T11:02:45.173Z,354.38
2019-02-27T11:03:43.978Z,354.38
2019-02-27T11:04:43.253Z,354.38
2019-02-27T11:05:42.989Z,360.00
2019-02-27T11:08:04.305Z,360.00
2019-02-27T11:09:04.661Z,360.00
2019-02-27T11:10:04.468Z,360.00
2019-02-27T11:11:04.511Z,360.00
2019-02-27T11:12:03.955Z,360.00
2019-02-27T11:39:14.894Z,371.25
2019-02-27T12:46:47.219Z,2767.50
2019-02-27T13:02:36.707Z,2936.25
2019-02-27T13:03:37.009Z,3037.50
2019-02-27T13:05:50.368Z,3369.38
2019-02-27T13:06:50.640Z,3543.75
2019-02-27T13:07:48.942Z,3510.00
2019-02-27T13:10:54.985Z,3363.75
2019-02-27T13:11:53.678Z,3408.75
2019-02-27T13:12:53.766Z,3262.50
2019-02-27T13:13:53.656Z,1929.38
2019-02-27T13:14:53.602Z,506.25
2019-02-27T13:15:53.513Z,427.50
2019-02-27T13:16:53.595Z,1597.50
2019-02-27T13:17:57.410Z,3195.00
2019-02-27T13:18:53.571Z,3206.25
2019-02-27T13:19:53.482Z,2902.50
2019-02-27T13:20:53.683Z,2958.75
2019-02-27T13:21:55.027Z,3285.00
2019-02-27T13:22:53.867Z,3330.00
2019-02-27T13:23:55.671Z,3217.50
2019-02-27T13:25:08.666Z,3234.38
2019-02-27T13:25:53.691Z,3262.50
2019-02-27T13:26:53.600Z,3138.75
2019-02-27T13:27:53.628Z,3071.25
2019-02-27T13:28:53.496Z,3031.88
2019-02-27T13:29:56.731Z,2981.25
2019-02-27T13:30:54.544Z,3183.75
2019-02-27T13:31:53.463Z,3093.75
2019-02-27T13:32:53.352Z,2941.88
2019-02-27T13:33:53.777Z,2902.50
2019-02-27T13:34:53.354Z,3076.88
2019-02-27T13:35:56.751Z,3172.50
2019-02-27T13:36:55.190Z,3060.00
2019-02-27T13:37:53.561Z,3009.38
2019-02-27T13:38:53.253Z,2840.62
2019-02-27T13:39:57.297Z,2660.62
2019-02-27T13:40:54.245Z,2874.38
2019-02-27T13:55:41.983Z,2716.88
2019-02-27T13:56:42.341Z,2688.75
2019-02-27T13:57:41.404Z,2598.75
2019-02-27T14:24:44.499Z,2154.38
2019-02-27T14:25:43.031Z,2137.50
2019-02-27T14:26:42.991Z,2092.50
2019-02-27T14:27:47.249Z,2030.62
2019-02-27T14:28:43.945Z,2047.50
2019-02-27T14:29:42.919Z,2109.38
2019-02-27T14:30:42.854Z,2075.62
2019-02-27T14:31:43.412Z,2075.62
2019-02-27T14:34:27.102Z,1963.12
2019-02-27T14:35:24.228Z,1946.25
2019-02-27T14:39:35.156Z,1541.25
2019-02-27T14:40:37.774Z,1389.38
2019-02-27T14:41:34.589Z,1164.38
2019-02-27T14:42:34.506Z,905.62
2019-02-27T14:43:34.565Z,776.25
2019-02-27T14:44:34.610Z,742.50
2019-02-27T14:45:39.516Z,714.38
2019-02-27T14:46:35.427Z,641.25
2019-02-27T14:47:34.482Z,669.38
2019-02-27T14:48:34.449Z,736.88
2019-02-27T14:49:34.436Z,748.12
2019-02-27T14:52:33.199Z,714.38
2019-02-27T14:53:32.946Z,624.38
2019-02-27T14:54:33.630Z,596.25
2019-02-27T14:55:36.170Z,691.88
2019-02-27T14:56:32.775Z,753.75
2019-02-27T14:57:32.725Z,793.12
2019-02-27T14:58:32.675Z,826.88
2019-02-27T14:59:32.660Z,871.88
2019-02-27T15:00:33.148Z,973.12
2019-02-27T15:01:32.828Z,1125.00
2019-02-27T15:02:32.800Z,1344.38
2019-02-27T15:03:32.957Z,1665.00
2019-02-27T15:04:33.342Z,1856.25
2019-02-27T15:05:32.618Z,1771.88
2019-02-27T15:06:34.141Z,1203.75
2019-02-27T15:07:32.725Z,1080.00
2019-02-27T15:14:35.522Z,1029.38
2019-02-27T15:30:13.189Z,506.25
2019-02-27T15:31:10.839Z,478.12
2019-02-27T15:32:11.215Z,421.88
2019-02-27T16:05:00.536Z,838.12
2019-02-27T16:06:05.057Z,826.88
2019-02-27T16:16:30.688Z,191.25
2019-02-27T16:19:28.576Z,168.75
2019-02-27T16:29:19.982Z,135.00
2019-02-27T16:30:19.068Z,129.38
2019-02-27T16:31:18.816Z,129.38
2019-02-27T16:38:23.515Z,101.25
2019-02-27T17:28:00.106Z,0.00
2019-02-27T17:30:11.330Z,0.00
2019-02-27T17:31:12.229Z,0.00
2019-02-27T17:32:11.178Z,0.00
2019-02-27T17:33:10.970Z,0.00
2019-02-27T17:34:13.443Z,0.00
2019-02-27T17:35:11.041Z,0.00
2019-02-27T17:36:10.814Z,0.00
2019-02-27T17:37:10.850Z,0.00
2019-02-27T17:38:13.680Z,0.00
2019-02-27T17:39:10.811Z,0.00
2019-02-27T17:40:10.745Z,0.00
2019-02-27T17:41:10.841Z,0.00
2019-02-27T17:46:27.367Z,0.00
2019-02-27T17:51:31.708Z,0.00
2019-02-27T17:52:30.588Z,0.00
2019-02-27T17:53:30.896Z,0.00
2019-02-27T17:54:31.598Z,0.00
2019-02-27T17:55:30.099Z,0.00
2019-02-27T17:56:30.594Z,0.00
2019-02-27T17:57:30.124Z,0.00
2019-02-27T18:44:23.135Z,0.00
2019-02-27T18:46:47.050Z,0.00
2019-02-27T18:47:46.912Z,0.00
2019-02-27T19:14:31.006Z,0.00
2019-02-27T20:00:24.685Z,0.00
2019-02-27T20:01:20.967Z,0.00
2019-02-27T20:03:35.493Z,0.00
2019-02-27T20:04:34.882Z,0.00
2019-02-27T20:05:36.520Z,0.00
2019-02-27T20:06:38.418Z,0.00
2019-02-27T20:22:18.966Z,0.00
2019-02-27T20:23:16.133Z,0.00
2019-02-27T20:24:15.401Z,0.00
2019-02-27T20:25:15.350Z,0.00
2019-02-27T20:26:20.016Z,0.00
2019-02-27T20:27:18.432Z,0.00
2019-02-27T20:34:48.283Z,0.00
2019-02-27T20:35:55.594Z,0.00
2019-02-27T20:40:10.234Z,0.00
2019-02-27T20:41:09.298Z,0.00
2019-02-27T20:42:09.659Z,0.00
